This is the latest recevied weather packets stored in our database for station/object IZ0OSI-10. If no packets are shown the sender has not sent any weather packets the latest 1 day(s).
| Time | Temp. | Humidity | Pressure | Rain* | Wind** | Luminosity | Snow |
|---|---|---|---|---|---|---|---|
| 1788636551 | 31.11° C | 56% | 1026.7 hPa | - | - | - | - |
| 1788634158 | 32.22° C | 55% | 1026.4 hPa | - | - | - | - |
| 1788634151 | 32.22° C | 55% | 1026.4 hPa | - | - | - | - |
| 1788631750 | 32.22° C | 54% | 1026.1 hPa | - | - | - | - |
| 1788629356 | 32.78° C | 52% | 1025.7 hPa | - | - | - | - |
| 1788629349 | 32.78° C | 52% | 1025.7 hPa | - | - | - | - |
| 1788626955 | 33.89° C | 45% | 1025.5 hPa | - | - | - | - |
| 1788624547 | 35° C | 38% | 1025.5 hPa | - | - | - | - |
| 1788622139 | 36.11° C | 37% | 1025.4 hPa | - | - | - | - |
| 1788619731 | 38.33° C | 33% | 1025.5 hPa | - | - | - | - |
| 1788617322 | 37.22° C | 38% | 1025.7 hPa | - | - | - | - |
| 1788614916 | 37.22° C | 36% | 1026.1 hPa | - | - | - | - |
| 1788612510 | 38.89° C | 29% | 1025.9 hPa | - | - | - | - |
| 1788610108 | 38.89° C | 27% | 1026.1 hPa | - | - | - | - |
| 1788607699 | 38.89° C | 24% | 1025.9 hPa | - | - | - | - |
| 1788605296 | 38.33° C | 26% | 1026.1 hPa | - | - | - | - |
| 1788600491 | 36.67° C | 26% | 1026.5 hPa | - | - | - | - |
| 1788598086 | 34.44° C | 30% | 1026.4 hPa | - | - | - | - |
| 1788595679 | 32.78° C | 35% | 1026.4 hPa | - | - | - | - |
| 1788593275 | 30.56° C | 37% | 1026.3 hPa | - | - | - | - |
| 1788590869 | 28.33° C | 43% | 1026.4 hPa | - | - | - | - |
| 1788588466 | 26.11° C | 49% | 1026.6 hPa | - | - | - | - |
| 1788586061 | 25.56° C | 50% | 1025.9 hPa | - | - | - | - |
| 1788583654 | 25.56° C | 49% | 1025.7 hPa | - | - | - | - |
| 1788581247 | 25.56° C | 48% | 1025.6 hPa | - | - | - | - |
* Rain since midnight (hover to see other rain measurements)
** Current wind speed in m/s (hover to see current wind gust speed)